Enter the Airport ICAO Code

Search by Airport or City

Current Weather

SBFL | Hercílio Luz International Airport

Florianópolis, Santa Catarina, Brazil

Last Update 22 Minutes Ago

Mostly Cloudy Sky

Temperature of 19 ºC

Light Winds from NorthEast

Temperature

19 ºC

Dew Point Temperature

05 ºC

Relative Humidity

39.89 %

Wind Direction

NorthEast (030º, Without Significant Variations)

Wind Velocity

6 km/h (03 kt)

Gusts

None

Visibility

Greater than 10 Kilometers

Sea Level Pressure

1020 hPa (Hectopascals)

Layers of Clouds

5% to 30% of Sky Covered from 914 mts (3000 ft) Above Ground Level.

60% to 90% of Sky Covered from 1524 mts (5000 ft) Above Ground Level.

METAR SBFL 202200Z 03003KT 9999 FEW030 BKN050 19/05 Q1020

Weather Forecast

SBFL | Hercílio Luz International Airport

Florianópolis, Santa Catarina, Brazil

Forecast valid for the next 20 Hours

In the next hour it is expected the begining of:

Mostly Cloudy Sky

Light to Moderate Winds from SouthEast

In 6 to 8 hours it is expected the begining of:

Partly Cloudy Sky

Light to Moderate Winds from SouthWest

In 14 to 16 hours it is expected the begining of:

Moderate Winds from NorthEast

Maximum Temperature

23 ºC in 19 Hours

Minimum Temperature

15 ºC in 9 Hours

TAF SBFL 201500Z 2018/2118 10010KT 9999 SCT035 TN15/2107Z TX23/2117Z BECMG 2021/2023 12005KT BKN030 BECMG 2104/2106 23005KT SCT025 BECMG 2110/2112 SCT035 BECMG 2112/2114 04010KT RMK PCX